sensor_id;sensor_type;location;lat;lon;timestamp;temperature;humidity
10171;DHT22;5127;50.922;6.988;2022-10-16T00:01:27;17.80;69.50
10171;DHT22;5127;50.922;6.988;2022-10-16T00:03:56;17.80;69.50
10171;DHT22;5127;50.922;6.988;2022-10-16T00:06:24;17.80;69.60
10171;DHT22;5127;50.922;6.988;2022-10-16T00:08:53;17.80;69.50
10171;DHT22;5127;50.922;6.988;2022-10-16T00:11:23;17.80;69.40
10171;DHT22;5127;50.922;6.988;2022-10-16T00:13:54;17.80;69.40
10171;DHT22;5127;50.922;6.988;2022-10-16T00:16:21;17.80;69.50
10171;DHT22;5127;50.922;6.988;2022-10-16T00:18:48;17.80;69.40
10171;DHT22;5127;50.922;6.988;2022-10-16T00:21:18;17.80;69.40
10171;DHT22;5127;50.922;6.988;2022-10-16T00:23:46;17.80;69.40
10171;DHT22;5127;50.922;6.988;2022-10-16T00:26:16;17.80;69.40
10171;DHT22;5127;50.922;6.988;2022-10-16T00:28:45;17.80;69.30
10171;DHT22;5127;50.922;6.988;2022-10-16T00:31:13;17.80;69.30
10171;DHT22;5127;50.922;6.988;2022-10-16T00:33:40;17.80;69.30
10171;DHT22;5127;50.922;6.988;2022-10-16T00:36:10;17.80;69.30
10171;DHT22;5127;50.922;6.988;2022-10-16T00:38:39;17.80;69.30
10171;DHT22;5127;50.922;6.988;2022-10-16T00:41:07;17.80;69.30
10171;DHT22;5127;50.922;6.988;2022-10-16T00:43:41;17.80;69.20
10171;DHT22;5127;50.922;6.988;2022-10-16T00:46:17;17.80;69.10
10171;DHT22;5127;50.922;6.988;2022-10-16T00:48:50;17.80;69.00
10171;DHT22;5127;50.922;6.988;2022-10-16T00:51:23;17.70;69.00
10171;DHT22;5127;50.922;6.988;2022-10-16T00:53:51;17.80;69.10
10171;DHT22;5127;50.922;6.988;2022-10-16T00:56:19;17.70;69.00
10171;DHT22;5127;50.922;6.988;2022-10-16T00:58:48;17.70;69.00
10171;DHT22;5127;50.922;6.988;2022-10-16T01:01:15;17.70;69.00
10171;DHT22;5127;50.922;6.988;2022-10-16T01:03:42;17.70;69.00
10171;DHT22;5127;50.922;6.988;2022-10-16T01:06:23;17.70;69.00
10171;DHT22;5127;50.922;6.988;2022-10-16T01:09:02;17.70;68.90
10171;DHT22;5127;50.922;6.988;2022-10-16T01:11:35;17.70;68.80
10171;DHT22;5127;50.922;6.988;2022-10-16T01:14:12;17.70;69.00
10171;DHT22;5127;50.922;6.988;2022-10-16T01:16:44;17.60;68.70
10171;DHT22;5127;50.922;6.988;2022-10-16T01:19:20;17.60;68.80
10171;DHT22;5127;50.922;6.988;2022-10-16T01:21:53;17.60;68.80
10171;DHT22;5127;50.922;6.988;2022-10-16T01:24:31;17.60;68.80
10171;DHT22;5127;50.922;6.988;2022-10-16T01:27:12;17.60;68.70
10171;DHT22;5127;50.922;6.988;2022-10-16T01:29:45;17.60;68.70
10171;DHT22;5127;50.922;6.988;2022-10-16T01:32:19;17.60;68.70
10171;DHT22;5127;50.922;6.988;2022-10-16T01:34:50;17.60;68.70
10171;DHT22;5127;50.922;6.988;2022-10-16T01:37:26;17.60;68.80
10171;DHT22;5127;50.922;6.988;2022-10-16T01:39:58;17.50;68.70
10171;DHT22;5127;50.922;6.988;2022-10-16T01:42:31;17.50;68.70
10171;DHT22;5127;50.922;6.988;2022-10-16T01:45:02;17.50;68.70
10171;DHT22;5127;50.922;6.988;2022-10-16T01:47:33;17.50;68.70
10171;DHT22;5127;50.922;6.988;2022-10-16T01:50:03;17.50;68.70
10171;DHT22;5127;50.922;6.988;2022-10-16T01:52:34;17.50;68.70
10171;DHT22;5127;50.922;6.988;2022-10-16T01:55:05;17.40;68.60
10171;DHT22;5127;50.922;6.988;2022-10-16T01:57:37;17.40;68.60
10171;DHT22;5127;50.922;6.988;2022-10-16T02:00:10;17.40;68.50
10171;DHT22;5127;50.922;6.988;2022-10-16T02:02:39;17.40;68.60
10171;DHT22;5127;50.922;6.988;2022-10-16T02:05:12;17.30;68.60
10171;DHT22;5127;50.922;6.988;2022-10-16T02:07:42;17.30;68.70
10171;DHT22;5127;50.922;6.988;2022-10-16T02:10:10;17.30;68.80
10171;DHT22;5127;50.922;6.988;2022-10-16T02:12:42;17.30;69.00
10171;DHT22;5127;50.922;6.988;2022-10-16T02:15:11;17.20;69.00
10171;DHT22;5127;50.922;6.988;2022-10-16T02:17:38;17.30;69.10
10171;DHT22;5127;50.922;6.988;2022-10-16T02:20:06;17.30;69.20
10171;DHT22;5127;50.922;6.988;2022-10-16T02:22:36;17.30;70.00
10171;DHT22;5127;50.922;6.988;2022-10-16T02:25:08;17.30;69.30
10171;DHT22;5127;50.922;6.988;2022-10-16T02:27:43;17.30;69.30
10171;DHT22;5127;50.922;6.988;2022-10-16T02:30:15;17.30;69.30
10171;DHT22;5127;50.922;6.988;2022-10-16T02:32:46;17.30;69.30
10171;DHT22;5127;50.922;6.988;2022-10-16T02:35:16;17.30;69.20
10171;DHT22;5127;50.922;6.988;2022-10-16T02:37:44;17.40;69.30
10171;DHT22;5127;50.922;6.988;2022-10-16T02:40:12;17.40;69.20
10171;DHT22;5127;50.922;6.988;2022-10-16T02:42:40;17.40;69.30
10171;DHT22;5127;50.922;6.988;2022-10-16T02:45:11;17.30;69.20
10171;DHT22;5127;50.922;6.988;2022-10-16T02:47:38;17.40;69.30
10171;DHT22;5127;50.922;6.988;2022-10-16T02:50:06;17.40;69.30
10171;DHT22;5127;50.922;6.988;2022-10-16T02:52:33;17.40;69.40
10171;DHT22;5127;50.922;6.988;2022-10-16T02:55:01;17.50;69.50
10171;DHT22;5127;50.922;6.988;2022-10-16T02:57:28;17.40;69.40
10171;DHT22;5127;50.922;6.988;2022-10-16T02:59:55;17.30;69.30
10171;DHT22;5127;50.922;6.988;2022-10-16T03:02:25;17.40;69.40
10171;DHT22;5127;50.922;6.988;2022-10-16T03:04:52;17.50;69.40
10171;DHT22;5127;50.922;6.988;2022-10-16T03:07:19;17.50;69.40
10171;DHT22;5127;50.922;6.988;2022-10-16T03:09:46;17.50;69.40
10171;DHT22;5127;50.922;6.988;2022-10-16T03:12:13;17.50;69.30
10171;DHT22;5127;50.922;6.988;2022-10-16T03:14:41;17.50;69.20
10171;DHT22;5127;50.922;6.988;2022-10-16T03:17:08;17.50;69.10
10171;DHT22;5127;50.922;6.988;2022-10-16T03:19:36;17.50;69.10
10171;DHT22;5127;50.922;6.988;2022-10-16T03:22:04;17.50;69.00
10171;DHT22;5127;50.922;6.988;2022-10-16T03:24:31;17.40;68.80
10171;DHT22;5127;50.922;6.988;2022-10-16T03:26:58;17.50;68.90
10171;DHT22;5127;50.922;6.988;2022-10-16T03:29:26;17.40;68.80
10171;DHT22;5127;50.922;6.988;2022-10-16T03:31:55;17.40;68.80
10171;DHT22;5127;50.922;6.988;2022-10-16T03:34:22;17.40;68.80
10171;DHT22;5127;50.922;6.988;2022-10-16T03:36:51;17.40;68.80
10171;DHT22;5127;50.922;6.988;2022-10-16T03:39:19;17.30;68.70
10171;DHT22;5127;50.922;6.988;2022-10-16T03:41:46;17.30;68.80
10171;DHT22;5127;50.922;6.988;2022-10-16T03:44:13;17.30;68.80
10171;DHT22;5127;50.922;6.988;2022-10-16T03:46:41;17.30;68.90
10171;DHT22;5127;50.922;6.988;2022-10-16T03:49:08;17.30;68.90
10171;DHT22;5127;50.922;6.988;2022-10-16T03:51:35;17.30;69.00
10171;DHT22;5127;50.922;6.988;2022-10-16T03:54:04;17.30;69.00
10171;DHT22;5127;50.922;6.988;2022-10-16T03:56:31;17.30;69.00
10171;DHT22;5127;50.922;6.988;2022-10-16T03:58:59;17.30;69.00
10171;DHT22;5127;50.922;6.988;2022-10-16T04:01:26;17.30;69.00
10171;DHT22;5127;50.922;6.988;2022-10-16T04:03:53;17.50;69.20
10171;DHT22;5127;50.922;6.988;2022-10-16T04:06:20;17.30;69.00
10171;DHT22;5127;50.922;6.988;2022-10-16T04:08:47;17.40;69.10
10171;DHT22;5127;50.922;6.988;2022-10-16T04:11:16;17.40;69.10
10171;DHT22;5127;50.922;6.988;2022-10-16T04:13:43;17.40;69.00
10171;DHT22;5127;50.922;6.988;2022-10-16T04:16:10;17.40;69.00
10171;DHT22;5127;50.922;6.988;2022-10-16T04:18:38;17.40;69.00
10171;DHT22;5127;50.922;6.988;2022-10-16T04:21:06;17.40;69.00
10171;DHT22;5127;50.922;6.988;2022-10-16T04:23:33;17.50;69.10
10171;DHT22;5127;50.922;6.988;2022-10-16T04:26:01;17.50;69.10
10171;DHT22;5127;50.922;6.988;2022-10-16T04:28:29;17.60;69.10
10171;DHT22;5127;50.922;6.988;2022-10-16T04:30:57;17.50;69.00
10171;DHT22;5127;50.922;6.988;2022-10-16T04:33:24;17.50;69.00
10171;DHT22;5127;50.922;6.988;2022-10-16T04:35:56;17.50;68.90
10171;DHT22;5127;50.922;6.988;2022-10-16T04:38:24;17.60;68.80
10171;DHT22;5127;50.922;6.988;2022-10-16T04:40:51;17.60;69.00
10171;DHT22;5127;50.922;6.988;2022-10-16T04:43:19;17.60;69.00
10171;DHT22;5127;50.922;6.988;2022-10-16T04:45:48;17.70;69.00
10171;DHT22;5127;50.922;6.988;2022-10-16T04:48:16;17.60;68.80
10171;DHT22;5127;50.922;6.988;2022-10-16T04:50:44;17.60;68.80
10171;DHT22;5127;50.922;6.988;2022-10-16T04:53:12;17.60;68.80
10171;DHT22;5127;50.922;6.988;2022-10-16T04:55:39;17.60;68.80
10171;DHT22;5127;50.922;6.988;2022-10-16T04:58:08;17.60;68.80
10171;DHT22;5127;50.922;6.988;2022-10-16T05:00:35;17.60;68.70
10171;DHT22;5127;50.922;6.988;2022-10-16T05:03:05;17.60;68.70
10171;DHT22;5127;50.922;6.988;2022-10-16T05:05:34;17.60;68.70
10171;DHT22;5127;50.922;6.988;2022-10-16T05:08:02;17.60;68.70
10171;DHT22;5127;50.922;6.988;2022-10-16T05:10:30;17.60;69.40
10171;DHT22;5127;50.922;6.988;2022-10-16T05:12:57;17.60;68.70
10171;DHT22;5127;50.922;6.988;2022-10-16T05:15:24;17.60;68.80
10171;DHT22;5127;50.922;6.988;2022-10-16T05:17:53;17.60;68.80
10171;DHT22;5127;50.922;6.988;2022-10-16T05:20:22;17.60;68.80
10171;DHT22;5127;50.922;6.988;2022-10-16T05:22:49;17.60;68.90
10171;DHT22;5127;50.922;6.988;2022-10-16T05:25:17;17.60;68.80
10171;DHT22;5127;50.922;6.988;2022-10-16T05:27:47;17.60;68.90
10171;DHT22;5127;50.922;6.988;2022-10-16T05:30:15;17.60;68.90
10171;DHT22;5127;50.922;6.988;2022-10-16T05:32:45;17.60;69.00
10171;DHT22;5127;50.922;6.988;2022-10-16T05:35:12;17.60;68.90
10171;DHT22;5127;50.922;6.988;2022-10-16T05:37:41;17.60;69.00
10171;DHT22;5127;50.922;6.988;2022-10-16T05:40:09;17.60;69.00
10171;DHT22;5127;50.922;6.988;2022-10-16T05:42:36;17.60;69.00
10171;DHT22;5127;50.922;6.988;2022-10-16T05:45:05;17.60;68.90
10171;DHT22;5127;50.922;6.988;2022-10-16T05:47:33;17.60;68.80
10171;DHT22;5127;50.922;6.988;2022-10-16T05:50:00;17.60;68.80
10171;DHT22;5127;50.922;6.988;2022-10-16T05:52:27;17.60;68.70
10171;DHT22;5127;50.922;6.988;2022-10-16T05:54:56;17.50;68.50
10171;DHT22;5127;50.922;6.988;2022-10-16T05:57:23;17.50;68.50
10171;DHT22;5127;50.922;6.988;2022-10-16T05:59:50;17.50;68.40
10171;DHT22;5127;50.922;6.988;2022-10-16T06:02:18;17.40;68.30
10171;DHT22;5127;50.922;6.988;2022-10-16T06:04:45;17.40;68.40
10171;DHT22;5127;50.922;6.988;2022-10-16T06:07:12;17.30;68.30
10171;DHT22;5127;50.922;6.988;2022-10-16T06:09:39;17.30;68.30
10171;DHT22;5127;50.922;6.988;2022-10-16T06:12:08;17.30;68.40
10171;DHT22;5127;50.922;6.988;2022-10-16T06:14:35;17.20;68.40
10171;DHT22;5127;50.922;6.988;2022-10-16T06:17:02;17.20;68.50
10171;DHT22;5127;50.922;6.988;2022-10-16T06:19:29;17.20;68.50
10171;DHT22;5127;50.922;6.988;2022-10-16T06:21:57;17.10;68.50
10171;DHT22;5127;50.922;6.988;2022-10-16T06:24:25;17.10;68.60
10171;DHT22;5127;50.922;6.988;2022-10-16T06:26:52;17.10;68.70
10171;DHT22;5127;50.922;6.988;2022-10-16T06:29:21;17.10;68.90
10171;DHT22;5127;50.922;6.988;2022-10-16T06:31:48;17.10;68.90
10171;DHT22;5127;50.922;6.988;2022-10-16T06:34:15;17.10;69.10
10171;DHT22;5127;50.922;6.988;2022-10-16T06:36:42;17.10;69.20
10171;DHT22;5127;50.922;6.988;2022-10-16T06:39:10;17.20;69.40
10171;DHT22;5127;50.922;6.988;2022-10-16T06:41:37;17.10;69.40
10171;DHT22;5127;50.922;6.988;2022-10-16T06:44:15;17.20;69.60
10171;DHT22;5127;50.922;6.988;2022-10-16T06:46:43;17.20;69.60
10171;DHT22;5127;50.922;6.988;2022-10-16T06:49:10;17.30;69.80
10171;DHT22;5127;50.922;6.988;2022-10-16T06:51:38;17.30;69.90
10171;DHT22;5127;50.922;6.988;2022-10-16T06:54:07;17.40;70.70
10171;DHT22;5127;50.922;6.988;2022-10-16T06:56:34;17.40;70.10
10171;DHT22;5127;50.922;6.988;2022-10-16T06:59:02;17.40;70.10
10171;DHT22;5127;50.922;6.988;2022-10-16T07:01:30;17.50;70.30
10171;DHT22;5127;50.922;6.988;2022-10-16T07:03:59;17.50;70.20
10171;DHT22;5127;50.922;6.988;2022-10-16T07:06:29;17.60;70.40
10171;DHT22;5127;50.922;6.988;2022-10-16T07:08:57;17.70;70.40
10171;DHT22;5127;50.922;6.988;2022-10-16T07:11:24;17.70;70.40
10171;DHT22;5127;50.922;6.988;2022-10-16T07:13:52;17.80;70.50
10171;DHT22;5127;50.922;6.988;2022-10-16T07:16:20;17.90;70.50
10171;DHT22;5127;50.922;6.988;2022-10-16T07:18:48;17.90;70.50
10171;DHT22;5127;50.922;6.988;2022-10-16T07:21:20;18.00;70.70
10171;DHT22;5127;50.922;6.988;2022-10-16T07:23:50;18.10;70.80
10171;DHT22;5127;50.922;6.988;2022-10-16T07:26:17;18.20;71.70
10171;DHT22;5127;50.922;6.988;2022-10-16T07:28:45;18.30;70.90
10171;DHT22;5127;50.922;6.988;2022-10-16T07:31:13;18.30;70.70
10171;DHT22;5127;50.922;6.988;2022-10-16T07:33:42;18.40;70.60
10171;DHT22;5127;50.922;6.988;2022-10-16T07:36:11;18.50;70.50
10171;DHT22;5127;50.922;6.988;2022-10-16T07:38:39;18.50;70.30
10171;DHT22;5127;50.922;6.988;2022-10-16T07:41:10;18.60;70.30
10171;DHT22;5127;50.922;6.988;2022-10-16T07:43:38;18.60;70.30
10171;DHT22;5127;50.922;6.988;2022-10-16T07:46:06;18.70;70.50
10171;DHT22;5127;50.922;6.988;2022-10-16T07:48:34;18.80;70.70
10171;DHT22;5127;50.922;6.988;2022-10-16T07:51:03;18.80;70.70
10171;DHT22;5127;50.922;6.988;2022-10-16T07:53:31;18.90;71.00
10171;DHT22;5127;50.922;6.988;2022-10-16T07:56:01;19.00;71.50
10171;DHT22;5127;50.922;6.988;2022-10-16T07:58:30;19.30;71.70
10171;DHT22;5127;50.922;6.988;2022-10-16T08:00:57;19.40;72.20
10171;DHT22;5127;50.922;6.988;2022-10-16T08:03:25;19.60;72.50
10171;DHT22;5127;50.922;6.988;2022-10-16T08:05:52;19.90;72.60
10171;DHT22;5127;50.922;6.988;2022-10-16T08:08:20;20.10;72.10
10171;DHT22;5127;50.922;6.988;2022-10-16T08:10:47;20.40;72.10
10171;DHT22;5127;50.922;6.988;2022-10-16T08:13:16;20.60;72.10
10171;DHT22;5127;50.922;6.988;2022-10-16T08:15:44;20.80;71.80
10171;DHT22;5127;50.922;6.988;2022-10-16T08:18:13;21.10;72.20
10171;DHT22;5127;50.922;6.988;2022-10-16T08:20:41;21.30;72.40
10171;DHT22;5127;50.922;6.988;2022-10-16T08:23:09;21.60;72.10
10171;DHT22;5127;50.922;6.988;2022-10-16T08:25:39;21.90;71.90
10171;DHT22;5127;50.922;6.988;2022-10-16T08:28:07;22.20;72.20
10171;DHT22;5127;50.922;6.988;2022-10-16T08:30:36;22.50;72.30
10171;DHT22;5127;50.922;6.988;2022-10-16T08:33:04;22.80;71.20
10171;DHT22;5127;50.922;6.988;2022-10-16T08:35:32;23.00;70.50
10171;DHT22;5127;50.922;6.988;2022-10-16T08:37:59;23.20;69.60
10171;DHT22;5127;50.922;6.988;2022-10-16T08:40:28;23.30;68.40
10171;DHT22;5127;50.922;6.988;2022-10-16T08:43:12;23.40;67.10
10171;DHT22;5127;50.922;6.988;2022-10-16T08:45:57;23.40;65.80
10171;DHT22;5127;50.922;6.988;2022-10-16T08:48:31;23.30;65.30
10171;DHT22;5127;50.922;6.988;2022-10-16T08:51:02;23.20;65.40
10171;DHT22;5127;50.922;6.988;2022-10-16T08:53:33;23.10;65.20
10171;DHT22;5127;50.922;6.988;2022-10-16T08:56:03;23.00;64.70
10171;DHT22;5127;50.922;6.988;2022-10-16T08:58:31;22.90;64.60
10171;DHT22;5127;50.922;6.988;2022-10-16T09:01:01;22.80;65.20
10171;DHT22;5127;50.922;6.988;2022-10-16T09:03:51;22.60;63.80
10171;DHT22;5127;50.922;6.988;2022-10-16T09:06:39;22.50;63.60
10171;DHT22;5127;50.922;6.988;2022-10-16T09:09:24;22.30;63.80
10171;DHT22;5127;50.922;6.988;2022-10-16T09:11:59;22.10;63.60
10171;DHT22;5127;50.922;6.988;2022-10-16T09:14:40;22.00;63.60
10171;DHT22;5127;50.922;6.988;2022-10-16T09:17:24;21.90;63.80
10171;DHT22;5127;50.922;6.988;2022-10-16T09:19:56;21.80;63.50
10171;DHT22;5127;50.922;6.988;2022-10-16T09:22:27;21.70;64.20
10171;DHT22;5127;50.922;6.988;2022-10-16T09:25:00;21.60;64.20
10171;DHT22;5127;50.922;6.988;2022-10-16T09:27:27;21.50;63.90
10171;DHT22;5127;50.922;6.988;2022-10-16T09:29:55;21.40;64.30
10171;DHT22;5127;50.922;6.988;2022-10-16T09:32:23;21.30;64.30
10171;DHT22;5127;50.922;6.988;2022-10-16T09:34:53;21.30;64.10
10171;DHT22;5127;50.922;6.988;2022-10-16T09:37:23;21.20;64.00
10171;DHT22;5127;50.922;6.988;2022-10-16T09:39:52;21.10;64.10
10171;DHT22;5127;50.922;6.988;2022-10-16T09:42:21;21.10;64.20
10171;DHT22;5127;50.922;6.988;2022-10-16T09:44:51;21.10;64.40
10171;DHT22;5127;50.922;6.988;2022-10-16T09:47:21;21.10;64.40
10171;DHT22;5127;50.922;6.988;2022-10-16T09:49:53;21.10;64.40
10171;DHT22;5127;50.922;6.988;2022-10-16T09:52:22;21.00;64.20
10171;DHT22;5127;50.922;6.988;2022-10-16T09:54:51;21.10;64.30
10171;DHT22;5127;50.922;6.988;2022-10-16T09:57:18;21.00;64.20
10171;DHT22;5127;50.922;6.988;2022-10-16T09:59:47;21.10;64.40
10171;DHT22;5127;50.922;6.988;2022-10-16T10:02:15;21.00;64.10
10171;DHT22;5127;50.922;6.988;2022-10-16T10:04:50;21.00;63.90
10171;DHT22;5127;50.922;6.988;2022-10-16T10:07:25;21.00;63.40
10171;DHT22;5127;50.922;6.988;2022-10-16T10:09:53;21.00;62.80
10171;DHT22;5127;50.922;6.988;2022-10-16T10:12:23;21.00;63.50
10171;DHT22;5127;50.922;6.988;2022-10-16T10:14:52;21.00;63.20
10171;DHT22;5127;50.922;6.988;2022-10-16T10:17:21;21.00;63.20
10171;DHT22;5127;50.922;6.988;2022-10-16T10:19:52;21.00;63.00
10171;DHT22;5127;50.922;6.988;2022-10-16T10:22:27;21.00;63.10
10171;DHT22;5127;50.922;6.988;2022-10-16T10:25:00;21.00;62.90
10171;DHT22;5127;50.922;6.988;2022-10-16T10:27:34;21.00;63.30
10171;DHT22;5127;50.922;6.988;2022-10-16T10:30:08;21.10;62.60
10171;DHT22;5127;50.922;6.988;2022-10-16T10:32:45;21.10;62.90
10171;DHT22;5127;50.922;6.988;2022-10-16T10:35:19;21.20;62.50
10171;DHT22;5127;50.922;6.988;2022-10-16T10:38:06;21.20;63.00
10171;DHT22;5127;50.922;6.988;2022-10-16T10:40:49;21.30;62.50
10171;DHT22;5127;50.922;6.988;2022-10-16T10:43:37;21.30;62.70
10171;DHT22;5127;50.922;6.988;2022-10-16T10:46:12;21.40;62.60
10171;DHT22;5127;50.922;6.988;2022-10-16T10:48:54;21.50;63.00
10171;DHT22;5127;50.922;6.988;2022-10-16T10:51:30;21.60;62.70
10171;DHT22;5127;50.922;6.988;2022-10-16T10:54:07;21.70;62.90
10171;DHT22;5127;50.922;6.988;2022-10-16T10:56:45;21.70;62.50
10171;DHT22;5127;50.922;6.988;2022-10-16T10:59:37;21.80;62.20
10171;DHT22;5127;50.922;6.988;2022-10-16T11:02:14;21.90;62.10
10171;DHT22;5127;50.922;6.988;2022-10-16T11:04:54;22.10;62.00
10171;DHT22;5127;50.922;6.988;2022-10-16T11:07:27;22.10;61.50
10171;DHT22;5127;50.922;6.988;2022-10-16T11:09:59;22.10;61.90
10171;DHT22;5127;50.922;6.988;2022-10-16T11:12:31;22.20;61.80
10171;DHT22;5127;50.922;6.988;2022-10-16T11:15:07;22.20;61.60
10171;DHT22;5127;50.922;6.988;2022-10-16T11:17:40;22.20;61.50
10171;DHT22;5127;50.922;6.988;2022-10-16T11:20:14;22.30;61.90
10171;DHT22;5127;50.922;6.988;2022-10-16T11:22:46;22.30;61.00
10171;DHT22;5127;50.922;6.988;2022-10-16T11:25:19;22.30;61.10
10171;DHT22;5127;50.922;6.988;2022-10-16T11:27:50;22.40;61.20
10171;DHT22;5127;50.922;6.988;2022-10-16T11:30:21;22.30;61.00
10171;DHT22;5127;50.922;6.988;2022-10-16T11:32:56;22.40;61.00
10171;DHT22;5127;50.922;6.988;2022-10-16T11:35:37;22.50;60.90
10171;DHT22;5127;50.922;6.988;2022-10-16T11:38:12;22.50;60.40
10171;DHT22;5127;50.922;6.988;2022-10-16T11:40:45;22.60;60.10
10171;DHT22;5127;50.922;6.988;2022-10-16T11:43:19;22.60;60.00
10171;DHT22;5127;50.922;6.988;2022-10-16T11:45:51;22.60;59.80
10171;DHT22;5127;50.922;6.988;2022-10-16T11:48:26;22.70;59.80
10171;DHT22;5127;50.922;6.988;2022-10-16T11:50:58;22.70;59.40
10171;DHT22;5127;50.922;6.988;2022-10-16T11:53:42;22.70;59.70
10171;DHT22;5127;50.922;6.988;2022-10-16T11:56:20;22.70;59.10
10171;DHT22;5127;50.922;6.988;2022-10-16T11:58:56;22.80;59.20
10171;DHT22;5127;50.922;6.988;2022-10-16T12:01:30;22.80;59.10
10171;DHT22;5127;50.922;6.988;2022-10-16T12:04:16;22.80;59.10
10171;DHT22;5127;50.922;6.988;2022-10-16T12:06:46;22.90;58.90
10171;DHT22;5127;50.922;6.988;2022-10-16T12:09:20;22.80;59.20
10171;DHT22;5127;50.922;6.988;2022-10-16T12:11:50;22.80;58.60
10171;DHT22;5127;50.922;6.988;2022-10-16T12:14:32;22.80;59.20
10171;DHT22;5127;50.922;6.988;2022-10-16T12:17:02;22.80;58.80
10171;DHT22;5127;50.922;6.988;2022-10-16T12:19:32;22.70;59.20
10171;DHT22;5127;50.922;6.988;2022-10-16T12:22:00;22.70;59.20
10171;DHT22;5127;50.922;6.988;2022-10-16T12:24:34;22.70;59.20
10171;DHT22;5127;50.922;6.988;2022-10-16T12:27:05;22.70;58.50
10171;DHT22;5127;50.922;6.988;2022-10-16T12:29:36;22.70;59.00
10171;DHT22;5127;50.922;6.988;2022-10-16T12:32:05;22.70;59.20
10171;DHT22;5127;50.922;6.988;2022-10-16T12:34:38;22.70;59.20
10171;DHT22;5127;50.922;6.988;2022-10-16T12:37:13;22.70;58.40
10171;DHT22;5127;50.922;6.988;2022-10-16T12:39:41;22.70;58.70
10171;DHT22;5127;50.922;6.988;2022-10-16T12:42:32;22.80;59.50
10171;DHT22;5127;50.922;6.988;2022-10-16T12:45:00;22.90;58.40
10171;DHT22;5127;50.922;6.988;2022-10-16T12:47:48;22.90;59.30
10171;DHT22;5127;50.922;6.988;2022-10-16T12:50:26;23.00;58.30
10171;DHT22;5127;50.922;6.988;2022-10-16T12:52:53;23.00;58.40
10171;DHT22;5127;50.922;6.988;2022-10-16T12:55:21;23.10;59.20
10171;DHT22;5127;50.922;6.988;2022-10-16T13:00:45;23.20;58.00
10171;DHT22;5127;50.922;6.988;2022-10-16T13:06:28;23.20;58.00
10171;DHT22;5127;50.922;6.988;2022-10-16T13:09:08;23.20;57.90
10171;DHT22;5127;50.922;6.988;2022-10-16T13:11:57;23.20;57.70
10171;DHT22;5127;50.922;6.988;2022-10-16T13:14:54;23.20;57.70
10171;DHT22;5127;50.922;6.988;2022-10-16T13:17:31;23.20;57.90
10171;DHT22;5127;50.922;6.988;2022-10-16T13:20:10;23.30;58.10
10171;DHT22;5127;50.922;6.988;2022-10-16T13:22:45;23.30;58.10
10171;DHT22;5127;50.922;6.988;2022-10-16T13:25:23;23.20;58.00
10171;DHT22;5127;50.922;6.988;2022-10-16T13:27:56;23.20;57.70
10171;DHT22;5127;50.922;6.988;2022-10-16T13:30:28;23.10;58.30
10171;DHT22;5127;50.922;6.988;2022-10-16T13:33:00;23.10;58.10
10171;DHT22;5127;50.922;6.988;2022-10-16T13:35:29;23.10;58.00
10171;DHT22;5127;50.922;6.988;2022-10-16T13:38:12;23.10;58.60
10171;DHT22;5127;50.922;6.988;2022-10-16T13:40:49;23.10;57.90
10171;DHT22;5127;50.922;6.988;2022-10-16T13:43:17;23.20;58.00
10171;DHT22;5127;50.922;6.988;2022-10-16T13:45:55;23.20;58.80
10171;DHT22;5127;50.922;6.988;2022-10-16T13:48:22;23.20;57.80
10171;DHT22;5127;50.922;6.988;2022-10-16T13:51:00;23.30;58.60
10171;DHT22;5127;50.922;6.988;2022-10-16T13:53:30;23.30;57.60
10171;DHT22;5127;50.922;6.988;2022-10-16T13:55:58;23.30;58.10
10171;DHT22;5127;50.922;6.988;2022-10-16T13:58:27;23.30;58.50
10171;DHT22;5127;50.922;6.988;2022-10-16T14:00:58;23.40;58.50
10171;DHT22;5127;50.922;6.988;2022-10-16T14:03:27;23.40;58.00
10171;DHT22;5127;50.922;6.988;2022-10-16T14:05:59;23.40;58.10
10171;DHT22;5127;50.922;6.988;2022-10-16T14:08:29;23.40;57.60
10171;DHT22;5127;50.922;6.988;2022-10-16T14:10:58;23.40;58.00
10171;DHT22;5127;50.922;6.988;2022-10-16T14:13:30;23.40;57.90
10171;DHT22;5127;50.922;6.988;2022-10-16T14:16:03;23.30;57.70
10171;DHT22;5127;50.922;6.988;2022-10-16T14:18:33;23.30;57.40
10171;DHT22;5127;50.922;6.988;2022-10-16T14:21:05;23.30;58.00
10171;DHT22;5127;50.922;6.988;2022-10-16T14:23:35;23.30;57.60
10171;DHT22;5127;50.922;6.988;2022-10-16T14:26:13;23.30;57.80
10171;DHT22;5127;50.922;6.988;2022-10-16T14:28:41;23.30;57.60
10171;DHT22;5127;50.922;6.988;2022-10-16T14:31:38;23.20;58.00
10171;DHT22;5127;50.922;6.988;2022-10-16T14:34:25;23.20;57.50
10171;DHT22;5127;50.922;6.988;2022-10-16T14:36:54;23.20;57.70
10171;DHT22;5127;50.922;6.988;2022-10-16T14:39:22;23.10;58.40
10171;DHT22;5127;50.922;6.988;2022-10-16T14:41:51;23.10;58.40
10171;DHT22;5127;50.922;6.988;2022-10-16T14:44:22;23.10;58.30
10171;DHT22;5127;50.922;6.988;2022-10-16T14:46:51;23.00;58.20
10171;DHT22;5127;50.922;6.988;2022-10-16T14:49:20;23.00;58.40
10171;DHT22;5127;50.922;6.988;2022-10-16T14:51:48;23.00;58.40
10171;DHT22;5127;50.922;6.988;2022-10-16T14:54:17;23.00;58.70
10171;DHT22;5127;50.922;6.988;2022-10-16T14:56:47;23.00;58.80
10171;DHT22;5127;50.922;6.988;2022-10-16T14:59:18;23.00;58.70
10171;DHT22;5127;50.922;6.988;2022-10-16T15:01:46;22.90;58.80
10171;DHT22;5127;50.922;6.988;2022-10-16T15:04:15;23.00;59.10
10171;DHT22;5127;50.922;6.988;2022-10-16T15:06:43;23.00;59.00
10171;DHT22;5127;50.922;6.988;2022-10-16T15:09:11;22.90;59.10
10171;DHT22;5127;50.922;6.988;2022-10-16T15:11:38;23.00;59.40
10171;DHT22;5127;50.922;6.988;2022-10-16T15:14:08;23.00;59.20
10171;DHT22;5127;50.922;6.988;2022-10-16T15:16:35;22.90;59.20
10171;DHT22;5127;50.922;6.988;2022-10-16T15:19:02;22.90;59.40
10171;DHT22;5127;50.922;6.988;2022-10-16T15:21:32;22.90;59.50
10171;DHT22;5127;50.922;6.988;2022-10-16T15:24:00;22.90;60.10
10171;DHT22;5127;50.922;6.988;2022-10-16T15:26:29;22.90;59.60
10171;DHT22;5127;50.922;6.988;2022-10-16T15:28:57;22.90;59.60
10171;DHT22;5127;50.922;6.988;2022-10-16T15:31:24;22.90;59.70
10171;DHT22;5127;50.922;6.988;2022-10-16T15:33:52;22.80;59.60
10171;DHT22;5127;50.922;6.988;2022-10-16T15:36:28;22.80;59.60
10171;DHT22;5127;50.922;6.988;2022-10-16T15:38:57;22.80;59.30
10171;DHT22;5127;50.922;6.988;2022-10-16T15:41:24;22.70;59.40
10171;DHT22;5127;50.922;6.988;2022-10-16T15:43:51;22.70;59.40
10171;DHT22;5127;50.922;6.988;2022-10-16T15:46:20;22.70;59.50
10171;DHT22;5127;50.922;6.988;2022-10-16T15:48:49;22.70;59.60
10171;DHT22;5127;50.922;6.988;2022-10-16T15:51:17;22.70;59.70
10171;DHT22;5127;50.922;6.988;2022-10-16T15:53:45;22.70;59.80
10171;DHT22;5127;50.922;6.988;2022-10-16T15:56:14;22.70;59.80
10171;DHT22;5127;50.922;6.988;2022-10-16T15:58:42;22.60;59.60
10171;DHT22;5127;50.922;6.988;2022-10-16T16:01:10;22.60;59.80
10171;DHT22;5127;50.922;6.988;2022-10-16T16:03:38;22.60;59.90
10171;DHT22;5127;50.922;6.988;2022-10-16T16:06:08;22.50;59.90
10171;DHT22;5127;50.922;6.988;2022-10-16T16:08:35;22.50;59.90
10171;DHT22;5127;50.922;6.988;2022-10-16T16:11:05;22.50;59.90
10171;DHT22;5127;50.922;6.988;2022-10-16T16:13:34;22.50;59.90